sensor_id;sensor_type;location;lat;lon;timestamp;P1;durP1;ratioP1;P2;durP2;ratioP2
55776;SDS011;54079;44.540;18.784;2023-04-10T00:00:14;16.58;;;14.15;;
55776;SDS011;54079;44.540;18.784;2023-04-10T00:02:40;16.65;;;14.10;;
55776;SDS011;54079;44.540;18.784;2023-04-10T00:05:06;16.58;;;14.38;;
55776;SDS011;54079;44.540;18.784;2023-04-10T00:07:33;20.17;;;15.95;;
55776;SDS011;54079;44.540;18.784;2023-04-10T00:09:59;17.38;;;14.50;;
55776;SDS011;54079;44.540;18.784;2023-04-10T00:12:24;17.13;;;14.68;;
55776;SDS011;54079;44.540;18.784;2023-04-10T00:14:51;17.95;;;15.15;;
55776;SDS011;54079;44.540;18.784;2023-04-10T00:17:17;17.50;;;14.18;;
55776;SDS011;54079;44.540;18.784;2023-04-10T00:19:43;19.55;;;14.88;;
55776;SDS011;54079;44.540;18.784;2023-04-10T00:22:08;18.23;;;15.13;;
55776;SDS011;54079;44.540;18.784;2023-04-10T00:24:35;18.23;;;14.82;;
55776;SDS011;54079;44.540;18.784;2023-04-10T00:27:01;16.08;;;13.27;;
55776;SDS011;54079;44.540;18.784;2023-04-10T00:29:27;16.27;;;13.40;;
55776;SDS011;54079;44.540;18.784;2023-04-10T00:31:52;15.55;;;13.75;;
55776;SDS011;54079;44.540;18.784;2023-04-10T00:34:18;18.63;;;14.80;;
55776;SDS011;54079;44.540;18.784;2023-04-10T00:36:45;17.70;;;15.30;;
55776;SDS011;54079;44.540;18.784;2023-04-10T00:39:13;16.65;;;13.82;;
55776;SDS011;54079;44.540;18.784;2023-04-10T00:41:39;15.73;;;13.85;;
55776;SDS011;54079;44.540;18.784;2023-04-10T00:44:05;19.75;;;16.33;;
55776;SDS011;54079;44.540;18.784;2023-04-10T00:46:31;16.60;;;14.23;;
55776;SDS011;54079;44.540;18.784;2023-04-10T00:48:59;17.88;;;14.98;;
55776;SDS011;54079;44.540;18.784;2023-04-10T00:51:25;18.83;;;15.90;;
55776;SDS011;54079;44.540;18.784;2023-04-10T00:53:51;19.35;;;15.38;;
55776;SDS011;54079;44.540;18.784;2023-04-10T00:56:20;16.52;;;14.23;;
55776;SDS011;54079;44.540;18.784;2023-04-10T00:58:48;17.75;;;14.68;;
55776;SDS011;54079;44.540;18.784;2023-04-10T01:01:14;18.38;;;14.93;;
55776;SDS011;54079;44.540;18.784;2023-04-10T01:03:41;17.33;;;14.05;;
55776;SDS011;54079;44.540;18.784;2023-04-10T01:06:13;17.33;;;14.85;;
55776;SDS011;54079;44.540;18.784;2023-04-10T01:11:53;16.20;;;14.30;;
55776;SDS011;54079;44.540;18.784;2023-04-10T01:14:29;17.75;;;14.70;;
55776;SDS011;54079;44.540;18.784;2023-04-10T01:17:07;17.08;;;14.20;;
55776;SDS011;54079;44.540;18.784;2023-04-10T01:22:09;19.10;;;14.82;;
55776;SDS011;54079;44.540;18.784;2023-04-10T01:30:07;17.00;;;13.52;;
55776;SDS011;54079;44.540;18.784;2023-04-10T01:32:39;17.15;;;13.20;;
55776;SDS011;54079;44.540;18.784;2023-04-10T01:35:06;17.50;;;13.63;;
55776;SDS011;54079;44.540;18.784;2023-04-10T01:37:33;15.85;;;13.40;;
55776;SDS011;54079;44.540;18.784;2023-04-10T01:40:03;18.63;;;15.20;;
55776;SDS011;54079;44.540;18.784;2023-04-10T01:42:34;17.77;;;13.27;;
55776;SDS011;54079;44.540;18.784;2023-04-10T01:47:32;17.00;;;12.68;;
55776;SDS011;54079;44.540;18.784;2023-04-10T01:49:58;18.20;;;14.25;;
55776;SDS011;54079;44.540;18.784;2023-04-10T01:52:26;15.23;;;13.60;;
55776;SDS011;54079;44.540;18.784;2023-04-10T01:54:54;16.67;;;12.90;;
55776;SDS011;54079;44.540;18.784;2023-04-10T01:57:20;17.85;;;14.18;;
55776;SDS011;54079;44.540;18.784;2023-04-10T01:59:46;16.60;;;13.57;;
55776;SDS011;54079;44.540;18.784;2023-04-10T02:02:13;16.35;;;13.82;;
55776;SDS011;54079;44.540;18.784;2023-04-10T02:04:39;17.85;;;14.18;;
55776;SDS011;54079;44.540;18.784;2023-04-10T02:07:15;17.58;;;14.30;;
55776;SDS011;54079;44.540;18.784;2023-04-10T02:09:51;15.38;;;13.13;;
55776;SDS011;54079;44.540;18.784;2023-04-10T02:12:24;17.98;;;13.57;;
55776;SDS011;54079;44.540;18.784;2023-04-10T02:14:54;16.85;;;13.13;;
55776;SDS011;54079;44.540;18.784;2023-04-10T02:17:25;16.20;;;14.32;;
55776;SDS011;54079;44.540;18.784;2023-04-10T02:19:54;16.90;;;14.57;;
55776;SDS011;54079;44.540;18.784;2023-04-10T02:22:22;18.88;;;13.80;;
55776;SDS011;54079;44.540;18.784;2023-04-10T02:24:50;17.58;;;13.75;;
55776;SDS011;54079;44.540;18.784;2023-04-10T02:27:28;16.27;;;13.77;;
55776;SDS011;54079;44.540;18.784;2023-04-10T02:29:55;15.80;;;12.82;;
55776;SDS011;54079;44.540;18.784;2023-04-10T02:32:22;15.18;;;11.98;;
55776;SDS011;54079;44.540;18.784;2023-04-10T02:34:48;16.80;;;13.68;;
55776;SDS011;54079;44.540;18.784;2023-04-10T02:37:14;18.92;;;15.13;;
55776;SDS011;54079;44.540;18.784;2023-04-10T02:39:40;15.25;;;12.45;;
55776;SDS011;54079;44.540;18.784;2023-04-10T02:42:06;14.57;;;12.00;;
55776;SDS011;54079;44.540;18.784;2023-04-10T02:44:32;16.05;;;12.50;;
55776;SDS011;54079;44.540;18.784;2023-04-10T02:46:58;15.98;;;13.75;;
55776;SDS011;54079;44.540;18.784;2023-04-10T02:49:24;14.93;;;12.80;;
55776;SDS011;54079;44.540;18.784;2023-04-10T02:51:50;14.52;;;12.35;;
55776;SDS011;54079;44.540;18.784;2023-04-10T02:54:16;16.55;;;13.98;;
55776;SDS011;54079;44.540;18.784;2023-04-10T02:56:42;18.63;;;14.40;;
55776;SDS011;54079;44.540;18.784;2023-04-10T02:59:08;16.42;;;13.77;;
55776;SDS011;54079;44.540;18.784;2023-04-10T03:01:34;15.13;;;13.02;;
55776;SDS011;54079;44.540;18.784;2023-04-10T03:04:00;16.73;;;12.95;;
55776;SDS011;54079;44.540;18.784;2023-04-10T03:06:28;15.82;;;13.27;;
55776;SDS011;54079;44.540;18.784;2023-04-10T03:08:54;16.58;;;13.63;;
55776;SDS011;54079;44.540;18.784;2023-04-10T03:11:20;14.70;;;13.10;;
55776;SDS011;54079;44.540;18.784;2023-04-10T03:13:46;14.70;;;11.88;;
55776;SDS011;54079;44.540;18.784;2023-04-10T03:16:13;16.02;;;13.80;;
55776;SDS011;54079;44.540;18.784;2023-04-10T03:18:40;15.15;;;12.27;;
55776;SDS011;54079;44.540;18.784;2023-04-10T03:21:07;15.93;;;12.77;;
55776;SDS011;54079;44.540;18.784;2023-04-10T03:23:33;15.05;;;13.25;;
55776;SDS011;54079;44.540;18.784;2023-04-10T03:25:58;16.25;;;13.43;;
55776;SDS011;54079;44.540;18.784;2023-04-10T03:28:24;16.45;;;12.77;;
55776;SDS011;54079;44.540;18.784;2023-04-10T03:30:51;18.88;;;15.35;;
55776;SDS011;54079;44.540;18.784;2023-04-10T03:33:17;16.00;;;13.52;;
55776;SDS011;54079;44.540;18.784;2023-04-10T03:35:46;16.08;;;13.57;;
55776;SDS011;54079;44.540;18.784;2023-04-10T03:38:12;17.48;;;14.70;;
55776;SDS011;54079;44.540;18.784;2023-04-10T03:40:38;19.55;;;13.85;;
55776;SDS011;54079;44.540;18.784;2023-04-10T03:43:04;16.98;;;14.52;;
55776;SDS011;54079;44.540;18.784;2023-04-10T03:45:30;19.20;;;14.50;;
55776;SDS011;54079;44.540;18.784;2023-04-10T03:47:57;15.52;;;13.05;;
55776;SDS011;54079;44.540;18.784;2023-04-10T03:50:23;17.23;;;13.65;;
55776;SDS011;54079;44.540;18.784;2023-04-10T03:52:50;16.67;;;13.57;;
55776;SDS011;54079;44.540;18.784;2023-04-10T03:55:16;14.93;;;12.90;;
55776;SDS011;54079;44.540;18.784;2023-04-10T03:57:44;15.27;;;12.63;;
55776;SDS011;54079;44.540;18.784;2023-04-10T04:00:13;19.35;;;14.43;;
55776;SDS011;54079;44.540;18.784;2023-04-10T04:02:40;16.73;;;14.40;;
55776;SDS011;54079;44.540;18.784;2023-04-10T04:05:06;17.02;;;14.18;;
55776;SDS011;54079;44.540;18.784;2023-04-10T04:07:33;15.30;;;13.23;;
55776;SDS011;54079;44.540;18.784;2023-04-10T04:09:59;16.00;;;13.55;;
55776;SDS011;54079;44.540;18.784;2023-04-10T04:12:26;15.82;;;13.00;;
55776;SDS011;54079;44.540;18.784;2023-04-10T04:14:52;16.02;;;13.95;;
55776;SDS011;54079;44.540;18.784;2023-04-10T04:17:18;15.35;;;12.73;;
55776;SDS011;54079;44.540;18.784;2023-04-10T04:19:44;18.83;;;14.10;;
55776;SDS011;54079;44.540;18.784;2023-04-10T04:22:10;16.80;;;13.18;;
55776;SDS011;54079;44.540;18.784;2023-04-10T04:24:36;16.48;;;13.90;;
55776;SDS011;54079;44.540;18.784;2023-04-10T04:27:02;17.38;;;13.40;;
55776;SDS011;54079;44.540;18.784;2023-04-10T04:29:28;17.98;;;14.68;;
55776;SDS011;54079;44.540;18.784;2023-04-10T04:31:54;17.25;;;13.50;;
55776;SDS011;54079;44.540;18.784;2023-04-10T04:34:20;17.15;;;14.13;;
55776;SDS011;54079;44.540;18.784;2023-04-10T04:36:46;16.25;;;13.95;;
55776;SDS011;54079;44.540;18.784;2023-04-10T04:39:11;17.33;;;14.65;;
55776;SDS011;54079;44.540;18.784;2023-04-10T04:41:37;14.07;;;12.57;;
55776;SDS011;54079;44.540;18.784;2023-04-10T04:44:03;17.58;;;14.43;;
55776;SDS011;54079;44.540;18.784;2023-04-10T04:46:30;17.15;;;14.02;;
55776;SDS011;54079;44.540;18.784;2023-04-10T04:48:56;18.30;;;14.73;;
55776;SDS011;54079;44.540;18.784;2023-04-10T04:51:22;17.83;;;14.75;;
55776;SDS011;54079;44.540;18.784;2023-04-10T04:53:48;15.88;;;14.10;;
55776;SDS011;54079;44.540;18.784;2023-04-10T04:56:14;16.58;;;14.38;;
55776;SDS011;54079;44.540;18.784;2023-04-10T04:58:40;15.10;;;13.25;;
55776;SDS011;54079;44.540;18.784;2023-04-10T05:01:06;17.10;;;14.23;;
55776;SDS011;54079;44.540;18.784;2023-04-10T05:03:33;17.90;;;13.43;;
55776;SDS011;54079;44.540;18.784;2023-04-10T05:05:58;16.35;;;13.90;;
55776;SDS011;54079;44.540;18.784;2023-04-10T05:08:24;15.35;;;13.63;;
55776;SDS011;54079;44.540;18.784;2023-04-10T05:10:50;21.23;;;16.20;;
55776;SDS011;54079;44.540;18.784;2023-04-10T05:13:16;17.25;;;13.95;;
55776;SDS011;54079;44.540;18.784;2023-04-10T05:15:43;15.88;;;13.32;;
55776;SDS011;54079;44.540;18.784;2023-04-10T05:18:09;16.45;;;13.55;;
55776;SDS011;54079;44.540;18.784;2023-04-10T05:20:35;16.58;;;13.68;;
55776;SDS011;54079;44.540;18.784;2023-04-10T05:23:01;16.10;;;13.98;;
55776;SDS011;54079;44.540;18.784;2023-04-10T05:25:27;17.48;;;14.63;;
55776;SDS011;54079;44.540;18.784;2023-04-10T05:27:53;17.17;;;14.73;;
55776;SDS011;54079;44.540;18.784;2023-04-10T05:30:20;18.40;;;14.73;;
55776;SDS011;54079;44.540;18.784;2023-04-10T05:32:46;18.90;;;14.57;;
55776;SDS011;54079;44.540;18.784;2023-04-10T05:35:11;17.23;;;13.85;;
55776;SDS011;54079;44.540;18.784;2023-04-10T05:37:37;17.50;;;14.85;;
55776;SDS011;54079;44.540;18.784;2023-04-10T05:40:03;17.05;;;14.20;;
55776;SDS011;54079;44.540;18.784;2023-04-10T05:42:30;20.08;;;15.95;;
55776;SDS011;54079;44.540;18.784;2023-04-10T05:44:56;18.20;;;15.73;;
55776;SDS011;54079;44.540;18.784;2023-04-10T05:47:22;18.60;;;15.27;;
55776;SDS011;54079;44.540;18.784;2023-04-10T05:49:47;17.15;;;14.80;;
55776;SDS011;54079;44.540;18.784;2023-04-10T05:52:13;18.95;;;15.43;;
55776;SDS011;54079;44.540;18.784;2023-04-10T05:54:39;16.98;;;14.10;;
55776;SDS011;54079;44.540;18.784;2023-04-10T05:57:05;17.23;;;14.65;;
55776;SDS011;54079;44.540;18.784;2023-04-10T05:59:31;17.77;;;15.10;;
55776;SDS011;54079;44.540;18.784;2023-04-10T06:01:57;18.92;;;14.57;;
55776;SDS011;54079;44.540;18.784;2023-04-10T06:04:23;24.80;;;18.90;;
55776;SDS011;54079;44.540;18.784;2023-04-10T06:06:49;23.73;;;18.40;;
55776;SDS011;54079;44.540;18.784;2023-04-10T06:09:15;23.75;;;17.85;;
55776;SDS011;54079;44.540;18.784;2023-04-10T06:11:41;20.95;;;16.08;;
55776;SDS011;54079;44.540;18.784;2023-04-10T06:14:07;21.52;;;18.02;;
55776;SDS011;54079;44.540;18.784;2023-04-10T06:16:33;25.70;;;20.50;;
55776;SDS011;54079;44.540;18.784;2023-04-10T06:18:59;26.20;;;20.27;;
55776;SDS011;54079;44.540;18.784;2023-04-10T06:21:25;25.65;;;19.25;;
55776;SDS011;54079;44.540;18.784;2023-04-10T06:23:51;24.77;;;18.88;;
55776;SDS011;54079;44.540;18.784;2023-04-10T06:26:16;25.92;;;20.38;;
55776;SDS011;54079;44.540;18.784;2023-04-10T06:28:42;25.45;;;19.15;;
55776;SDS011;54079;44.540;18.784;2023-04-10T06:31:09;26.55;;;20.92;;
55776;SDS011;54079;44.540;18.784;2023-04-10T06:33:35;27.23;;;21.02;;
55776;SDS011;54079;44.540;18.784;2023-04-10T06:36:01;25.95;;;20.35;;
55776;SDS011;54079;44.540;18.784;2023-04-10T06:38:28;31.83;;;25.05;;
55776;SDS011;54079;44.540;18.784;2023-04-10T06:40:54;29.45;;;23.65;;
55776;SDS011;54079;44.540;18.784;2023-04-10T06:43:20;29.33;;;24.27;;
55776;SDS011;54079;44.540;18.784;2023-04-10T06:45:46;36.47;;;27.70;;
55776;SDS011;54079;44.540;18.784;2023-04-10T06:48:12;33.50;;;25.17;;
55776;SDS011;54079;44.540;18.784;2023-04-10T06:50:39;32.35;;;26.05;;
55776;SDS011;54079;44.540;18.784;2023-04-10T06:53:05;39.65;;;26.70;;
55776;SDS011;54079;44.540;18.784;2023-04-10T06:55:31;36.08;;;28.73;;
55776;SDS011;54079;44.540;18.784;2023-04-10T06:57:57;38.50;;;30.33;;
55776;SDS011;54079;44.540;18.784;2023-04-10T07:00:23;40.50;;;30.77;;
55776;SDS011;54079;44.540;18.784;2023-04-10T07:02:49;34.30;;;27.95;;
55776;SDS011;54079;44.540;18.784;2023-04-10T07:05:15;39.65;;;31.77;;
55776;SDS011;54079;44.540;18.784;2023-04-10T07:07:41;36.13;;;30.13;;
55776;SDS011;54079;44.540;18.784;2023-04-10T07:10:08;38.85;;;30.73;;
55776;SDS011;54079;44.540;18.784;2023-04-10T07:12:35;36.40;;;30.15;;
55776;SDS011;54079;44.540;18.784;2023-04-10T07:15:00;35.88;;;28.67;;
55776;SDS011;54079;44.540;18.784;2023-04-10T07:17:27;38.70;;;31.80;;
55776;SDS011;54079;44.540;18.784;2023-04-10T07:19:53;37.78;;;29.80;;
55776;SDS011;54079;44.540;18.784;2023-04-10T07:22:19;37.70;;;30.02;;
55776;SDS011;54079;44.540;18.784;2023-04-10T07:24:45;36.40;;;28.73;;
55776;SDS011;54079;44.540;18.784;2023-04-10T07:27:10;38.60;;;31.63;;
55776;SDS011;54079;44.540;18.784;2023-04-10T07:29:37;46.10;;;35.08;;
55776;SDS011;54079;44.540;18.784;2023-04-10T07:32:03;48.55;;;35.00;;
55776;SDS011;54079;44.540;18.784;2023-04-10T07:34:29;39.63;;;30.92;;
55776;SDS011;54079;44.540;18.784;2023-04-10T07:36:56;47.90;;;36.17;;
55776;SDS011;54079;44.540;18.784;2023-04-10T07:39:21;46.10;;;32.90;;
55776;SDS011;54079;44.540;18.784;2023-04-10T07:41:47;38.03;;;30.65;;
55776;SDS011;54079;44.540;18.784;2023-04-10T07:44:13;35.20;;;27.23;;
55776;SDS011;54079;44.540;18.784;2023-04-10T07:46:39;35.25;;;29.02;;
55776;SDS011;54079;44.540;18.784;2023-04-10T07:49:06;45.00;;;34.15;;
55776;SDS011;54079;44.540;18.784;2023-04-10T07:51:31;39.15;;;31.10;;
55776;SDS011;54079;44.540;18.784;2023-04-10T07:53:57;34.05;;;28.02;;
55776;SDS011;54079;44.540;18.784;2023-04-10T07:56:23;34.38;;;28.75;;
55776;SDS011;54079;44.540;18.784;2023-04-10T07:58:50;35.40;;;27.27;;
55776;SDS011;54079;44.540;18.784;2023-04-10T08:01:16;33.60;;;27.38;;
55776;SDS011;54079;44.540;18.784;2023-04-10T08:03:42;38.25;;;29.35;;
55776;SDS011;54079;44.540;18.784;2023-04-10T08:06:10;37.88;;;29.83;;
55776;SDS011;54079;44.540;18.784;2023-04-10T08:08:37;36.72;;;27.95;;
55776;SDS011;54079;44.540;18.784;2023-04-10T08:11:07;33.35;;;26.15;;
55776;SDS011;54079;44.540;18.784;2023-04-10T08:13:47;30.73;;;24.15;;
55776;SDS011;54079;44.540;18.784;2023-04-10T08:16:13;33.83;;;25.60;;
55776;SDS011;54079;44.540;18.784;2023-04-10T08:18:39;40.28;;;30.80;;
55776;SDS011;54079;44.540;18.784;2023-04-10T08:21:05;30.33;;;25.77;;
55776;SDS011;54079;44.540;18.784;2023-04-10T08:23:31;29.13;;;24.88;;
55776;SDS011;54079;44.540;18.784;2023-04-10T08:25:57;34.22;;;28.58;;
55776;SDS011;54079;44.540;18.784;2023-04-10T08:28:23;32.38;;;25.17;;
55776;SDS011;54079;44.540;18.784;2023-04-10T08:30:49;31.10;;;25.40;;
55776;SDS011;54079;44.540;18.784;2023-04-10T08:33:17;33.00;;;26.48;;
55776;SDS011;54079;44.540;18.784;2023-04-10T08:35:46;34.17;;;28.38;;
55776;SDS011;54079;44.540;18.784;2023-04-10T08:38:13;31.65;;;26.33;;
55776;SDS011;54079;44.540;18.784;2023-04-10T08:40:39;33.60;;;27.70;;
55776;SDS011;54079;44.540;18.784;2023-04-10T08:43:05;37.33;;;29.95;;
55776;SDS011;54079;44.540;18.784;2023-04-10T08:45:32;34.10;;;28.20;;
55776;SDS011;54079;44.540;18.784;2023-04-10T08:47:59;31.10;;;25.98;;
55776;SDS011;54079;44.540;18.784;2023-04-10T08:50:30;30.55;;;25.08;;
55776;SDS011;54079;44.540;18.784;2023-04-10T08:52:58;32.20;;;27.50;;
55776;SDS011;54079;44.540;18.784;2023-04-10T08:55:32;32.30;;;25.63;;
55776;SDS011;54079;44.540;18.784;2023-04-10T08:57:59;27.55;;;23.52;;
55776;SDS011;54079;44.540;18.784;2023-04-10T09:00:25;35.63;;;28.92;;
55776;SDS011;54079;44.540;18.784;2023-04-10T09:02:53;29.67;;;25.25;;
55776;SDS011;54079;44.540;18.784;2023-04-10T09:05:23;29.45;;;24.80;;
55776;SDS011;54079;44.540;18.784;2023-04-10T09:07:51;31.17;;;25.52;;
55776;SDS011;54079;44.540;18.784;2023-04-10T09:10:17;33.03;;;26.92;;
55776;SDS011;54079;44.540;18.784;2023-04-10T09:12:43;36.33;;;28.90;;
55776;SDS011;54079;44.540;18.784;2023-04-10T09:15:10;29.25;;;25.08;;
55776;SDS011;54079;44.540;18.784;2023-04-10T09:17:38;30.35;;;26.40;;
55776;SDS011;54079;44.540;18.784;2023-04-10T09:20:21;28.08;;;25.05;;
55776;SDS011;54079;44.540;18.784;2023-04-10T09:22:48;27.48;;;23.50;;
55776;SDS011;54079;44.540;18.784;2023-04-10T09:25:33;34.60;;;26.90;;
55776;SDS011;54079;44.540;18.784;2023-04-10T09:28:01;36.22;;;28.90;;
55776;SDS011;54079;44.540;18.784;2023-04-10T09:30:32;30.35;;;25.80;;
55776;SDS011;54079;44.540;18.784;2023-04-10T09:32:59;29.88;;;25.83;;
55776;SDS011;54079;44.540;18.784;2023-04-10T09:35:34;29.92;;;25.52;;
55776;SDS011;54079;44.540;18.784;2023-04-10T09:38:12;29.33;;;26.17;;
55776;SDS011;54079;44.540;18.784;2023-04-10T09:40:39;31.50;;;26.70;;
55776;SDS011;54079;44.540;18.784;2023-04-10T09:45:52;28.80;;;25.70;;
55776;SDS011;54079;44.540;18.784;2023-04-10T09:48:19;36.00;;;31.30;;
55776;SDS011;54079;44.540;18.784;2023-04-10T09:50:45;34.28;;;30.50;;
55776;SDS011;54079;44.540;18.784;2023-04-10T09:53:15;32.40;;;27.80;;
55776;SDS011;54079;44.540;18.784;2023-04-10T09:55:46;39.13;;;30.83;;
55776;SDS011;54079;44.540;18.784;2023-04-10T09:58:13;39.97;;;35.17;;
55776;SDS011;54079;44.540;18.784;2023-04-10T10:00:43;40.20;;;33.92;;
55776;SDS011;54079;44.540;18.784;2023-04-10T10:03:14;36.38;;;31.60;;
55776;SDS011;54079;44.540;18.784;2023-04-10T10:05:42;35.83;;;31.92;;
55776;SDS011;54079;44.540;18.784;2023-04-10T10:08:10;35.88;;;31.70;;
55776;SDS011;54079;44.540;18.784;2023-04-10T10:10:52;34.78;;;31.02;;
55776;SDS011;54079;44.540;18.784;2023-04-10T10:13:23;38.67;;;31.38;;
55776;SDS011;54079;44.540;18.784;2023-04-10T10:21:03;37.78;;;32.78;;
55776;SDS011;54079;44.540;18.784;2023-04-10T10:23:30;40.95;;;34.90;;
55776;SDS011;54079;44.540;18.784;2023-04-10T10:25:57;44.05;;;36.42;;
55776;SDS011;54079;44.540;18.784;2023-04-10T10:28:24;40.80;;;34.42;;
55776;SDS011;54079;44.540;18.784;2023-04-10T10:30:55;41.35;;;36.67;;
55776;SDS011;54079;44.540;18.784;2023-04-10T10:33:21;44.67;;;38.20;;
55776;SDS011;54079;44.540;18.784;2023-04-10T10:35:50;41.60;;;36.15;;
55776;SDS011;54079;44.540;18.784;2023-04-10T10:38:17;46.88;;;38.58;;
55776;SDS011;54079;44.540;18.784;2023-04-10T10:43:26;43.97;;;37.78;;
55776;SDS011;54079;44.540;18.784;2023-04-10T10:48:31;45.75;;;39.55;;
55776;SDS011;54079;44.540;18.784;2023-04-10T10:50:57;45.75;;;37.20;;
55776;SDS011;54079;44.540;18.784;2023-04-10T10:53:32;42.03;;;34.97;;
55776;SDS011;54079;44.540;18.784;2023-04-10T10:58:54;42.05;;;36.00;;
55776;SDS011;54079;44.540;18.784;2023-04-10T11:01:23;47.28;;;39.35;;
55776;SDS011;54079;44.540;18.784;2023-04-10T11:03:50;43.50;;;37.10;;
55776;SDS011;54079;44.540;18.784;2023-04-10T11:06:16;43.00;;;35.55;;
55776;SDS011;54079;44.540;18.784;2023-04-10T11:11:23;43.97;;;37.03;;
55776;SDS011;54079;44.540;18.784;2023-04-10T11:21:31;41.88;;;34.55;;
55776;SDS011;54079;44.540;18.784;2023-04-10T11:31:58;39.90;;;33.63;;
55776;SDS011;54079;44.540;18.784;2023-04-10T11:34:25;45.17;;;36.03;;
55776;SDS011;54079;44.540;18.784;2023-04-10T11:36:52;41.78;;;32.38;;
55776;SDS011;54079;44.540;18.784;2023-04-10T11:39:18;41.92;;;34.17;;
55776;SDS011;54079;44.540;18.784;2023-04-10T11:41:49;40.40;;;33.28;;
55776;SDS011;54079;44.540;18.784;2023-04-10T11:44:32;47.67;;;38.42;;
55776;SDS011;54079;44.540;18.784;2023-04-10T11:47:03;44.78;;;37.85;;
55776;SDS011;54079;44.540;18.784;2023-04-10T11:49:30;50.25;;;38.28;;
55776;SDS011;54079;44.540;18.784;2023-04-10T11:51:58;46.58;;;36.85;;
55776;SDS011;54079;44.540;18.784;2023-04-10T11:54:25;50.40;;;37.03;;
55776;SDS011;54079;44.540;18.784;2023-04-10T11:59:29;48.40;;;37.10;;
55776;SDS011;54079;44.540;18.784;2023-04-10T12:02:06;48.70;;;37.95;;
55776;SDS011;54079;44.540;18.784;2023-04-10T12:04:38;54.50;;;39.08;;
55776;SDS011;54079;44.540;18.784;2023-04-10T12:07:04;44.67;;;35.85;;
55776;SDS011;54079;44.540;18.784;2023-04-10T12:09:30;47.78;;;38.88;;
55776;SDS011;54079;44.540;18.784;2023-04-10T12:12:03;46.67;;;36.20;;
55776;SDS011;54079;44.540;18.784;2023-04-10T12:16:58;54.38;;;41.05;;
55776;SDS011;54079;44.540;18.784;2023-04-10T12:19:25;49.88;;;38.60;;
55776;SDS011;54079;44.540;18.784;2023-04-10T12:21:51;46.95;;;37.20;;
55776;SDS011;54079;44.540;18.784;2023-04-10T12:27:08;49.13;;;37.00;;
55776;SDS011;54079;44.540;18.784;2023-04-10T12:29:46;44.42;;;34.72;;
55776;SDS011;54079;44.540;18.784;2023-04-10T12:32:14;46.67;;;34.63;;
55776;SDS011;54079;44.540;18.784;2023-04-10T12:34:40;48.05;;;38.08;;
55776;SDS011;54079;44.540;18.784;2023-04-10T12:37:06;48.75;;;37.25;;
55776;SDS011;54079;44.540;18.784;2023-04-10T12:39:34;48.60;;;36.17;;
55776;SDS011;54079;44.540;18.784;2023-04-10T12:42:12;46.13;;;35.58;;
55776;SDS011;54079;44.540;18.784;2023-04-10T12:44:52;47.38;;;35.83;;
55776;SDS011;54079;44.540;18.784;2023-04-10T12:47:22;43.40;;;33.63;;
55776;SDS011;54079;44.540;18.784;2023-04-10T12:50:11;47.30;;;34.92;;
55776;SDS011;54079;44.540;18.784;2023-04-10T12:52:41;41.53;;;32.67;;
55776;SDS011;54079;44.540;18.784;2023-04-10T12:57:40;42.72;;;31.40;;
55776;SDS011;54079;44.540;18.784;2023-04-10T13:00:08;39.80;;;31.50;;
55776;SDS011;54079;44.540;18.784;2023-04-10T13:02:36;38.83;;;30.88;;
55776;SDS011;54079;44.540;18.784;2023-04-10T13:05:02;40.83;;;31.60;;
55776;SDS011;54079;44.540;18.784;2023-04-10T13:07:29;37.40;;;28.30;;
55776;SDS011;54079;44.540;18.784;2023-04-10T13:09:55;37.75;;;31.00;;
55776;SDS011;54079;44.540;18.784;2023-04-10T13:12:22;35.72;;;28.67;;
55776;SDS011;54079;44.540;18.784;2023-04-10T13:14:48;36.60;;;27.35;;
55776;SDS011;54079;44.540;18.784;2023-04-10T13:17:14;30.60;;;26.35;;
55776;SDS011;54079;44.540;18.784;2023-04-10T13:19:40;35.38;;;28.20;;
55776;SDS011;54079;44.540;18.784;2023-04-10T13:22:06;35.33;;;29.13;;
55776;SDS011;54079;44.540;18.784;2023-04-10T13:24:32;35.83;;;28.90;;
55776;SDS011;54079;44.540;18.784;2023-04-10T13:26:58;37.20;;;29.98;;
55776;SDS011;54079;44.540;18.784;2023-04-10T13:29:24;39.40;;;32.00;;
55776;SDS011;54079;44.540;18.784;2023-04-10T13:31:50;35.13;;;28.75;;
55776;SDS011;54079;44.540;18.784;2023-04-10T13:34:16;35.72;;;28.95;;
55776;SDS011;54079;44.540;18.784;2023-04-10T13:36:41;34.13;;;28.60;;
55776;SDS011;54079;44.540;18.784;2023-04-10T13:39:07;31.33;;;25.23;;
55776;SDS011;54079;44.540;18.784;2023-04-10T13:41:33;33.88;;;28.08;;
55776;SDS011;54079;44.540;18.784;2023-04-10T13:43:59;32.78;;;27.30;;
55776;SDS011;54079;44.540;18.784;2023-04-10T13:46:25;33.13;;;28.20;;
55776;SDS011;54079;44.540;18.784;2023-04-10T13:48:51;32.45;;;26.55;;
55776;SDS011;54079;44.540;18.784;2023-04-10T13:51:17;31.63;;;25.45;;
55776;SDS011;54079;44.540;18.784;2023-04-10T13:53:43;28.02;;;24.92;;
55776;SDS011;54079;44.540;18.784;2023-04-10T13:56:09;35.97;;;30.20;;
55776;SDS011;54079;44.540;18.784;2023-04-10T13:58:35;36.97;;;30.15;;
55776;SDS011;54079;44.540;18.784;2023-04-10T14:01:01;29.88;;;26.15;;
55776;SDS011;54079;44.540;18.784;2023-04-10T14:03:27;30.98;;;26.85;;
55776;SDS011;54079;44.540;18.784;2023-04-10T14:05:53;30.20;;;26.05;;
55776;SDS011;54079;44.540;18.784;2023-04-10T14:08:19;29.20;;;25.10;;
55776;SDS011;54079;44.540;18.784;2023-04-10T14:10:45;26.17;;;22.30;;
55776;SDS011;54079;44.540;18.784;2023-04-10T14:13:18;28.35;;;23.00;;
55776;SDS011;54079;44.540;18.784;2023-04-10T14:15:44;26.63;;;23.38;;
55776;SDS011;54079;44.540;18.784;2023-04-10T14:18:11;26.85;;;23.42;;
55776;SDS011;54079;44.540;18.784;2023-04-10T14:20:37;29.38;;;24.60;;
55776;SDS011;54079;44.540;18.784;2023-04-10T14:23:06;26.27;;;23.38;;
55776;SDS011;54079;44.540;18.784;2023-04-10T14:25:32;28.08;;;24.30;;
55776;SDS011;54079;44.540;18.784;2023-04-10T14:27:58;26.98;;;23.67;;
55776;SDS011;54079;44.540;18.784;2023-04-10T14:30:24;29.83;;;25.40;;
55776;SDS011;54079;44.540;18.784;2023-04-10T14:32:55;28.55;;;24.10;;
55776;SDS011;54079;44.540;18.784;2023-04-10T14:35:21;27.05;;;24.00;;
55776;SDS011;54079;44.540;18.784;2023-04-10T14:37:49;29.83;;;25.45;;
55776;SDS011;54079;44.540;18.784;2023-04-10T14:40:15;33.30;;;27.60;;
55776;SDS011;54079;44.540;18.784;2023-04-10T14:42:41;36.20;;;29.67;;
55776;SDS011;54079;44.540;18.784;2023-04-10T14:45:07;35.25;;;27.27;;
55776;SDS011;54079;44.540;18.784;2023-04-10T14:47:33;34.53;;;29.38;;
55776;SDS011;54079;44.540;18.784;2023-04-10T14:50:00;29.90;;;26.58;;
55776;SDS011;54079;44.540;18.784;2023-04-10T14:52:26;32.35;;;26.27;;
55776;SDS011;54079;44.540;18.784;2023-04-10T14:54:52;30.50;;;26.23;;
55776;SDS011;54079;44.540;18.784;2023-04-10T14:57:17;31.33;;;25.13;;
55776;SDS011;54079;44.540;18.784;2023-04-10T14:59:43;30.08;;;25.08;;
55776;SDS011;54079;44.540;18.784;2023-04-10T15:02:09;30.17;;;25.48;;
55776;SDS011;54079;44.540;18.784;2023-04-10T15:04:35;29.13;;;25.92;;
55776;SDS011;54079;44.540;18.784;2023-04-10T15:07:01;33.58;;;28.50;;